createdAt,value
2023-03-17T00:00:52.554Z,1006.8
2023-03-17T00:01:56.054Z,1006.8
2023-03-17T00:02:58.733Z,1006.8
2023-03-17T00:04:02.049Z,1006.8
2023-03-17T00:05:05.414Z,1006.7
2023-03-17T00:06:09.569Z,1006.7
2023-03-17T00:07:12.380Z,1006.7
2023-03-17T00:08:14.914Z,1006.7
2023-03-17T00:09:17.385Z,1006.7
2023-03-17T00:10:20.391Z,1006.6
2023-03-17T00:11:23.450Z,1006.6
2023-03-17T00:12:26.476Z,1006.7
2023-03-17T00:13:30.089Z,1006.6
2023-03-17T00:14:33.213Z,1006.6
2023-03-17T00:15:36.659Z,1006.6
2023-03-17T00:16:39.906Z,1006.6
2023-03-17T00:17:43.073Z,1006.6
2023-03-17T00:18:46.443Z,1006.6
2023-03-17T00:19:49.313Z,1006.6
2023-03-17T00:20:52.782Z,1006.6
2023-03-17T00:21:56.877Z,1006.5
2023-03-17T00:23:00.578Z,1006.5
2023-03-17T00:24:03.979Z,1006.5
2023-03-17T00:25:07.070Z,1006.6
2023-03-17T00:26:10.053Z,1006.5
2023-03-17T00:27:13.235Z,1006.5
2023-03-17T00:28:16.681Z,1006.5
2023-03-17T00:29:19.203Z,1006.5
2023-03-17T00:30:22.004Z,1006.4
2023-03-17T00:31:25.774Z,1006.4
2023-03-17T00:32:29.523Z,1006.5
2023-03-17T00:33:33.049Z,1006.5
2023-03-17T00:34:36.601Z,1006.4
2023-03-17T00:35:39.660Z,1006.4
2023-03-17T00:36:42.599Z,1006.4
2023-03-17T00:37:46.758Z,1006.4
2023-03-17T00:38:50.780Z,1006.5
2023-03-17T00:39:54.213Z,1006.5
2023-03-17T00:40:57.532Z,1006.4
2023-03-17T00:42:00.880Z,1006.5
2023-03-17T00:43:03.734Z,1006.5
2023-03-17T00:44:07.450Z,1006.5
2023-03-17T00:45:10.243Z,1006.5
2023-03-17T00:46:13.270Z,1006.5
2023-03-17T00:47:16.593Z,1006.4
2023-03-17T00:48:19.046Z,1006.5
2023-03-17T00:49:22.872Z,1006.5
2023-03-17T00:50:26.323Z,1006.5
2023-03-17T00:51:31.750Z,1006.5
2023-03-17T00:52:34.602Z,1006.5
2023-03-17T00:53:38.438Z,1006.5
2023-03-17T00:54:41.549Z,1006.5
2023-03-17T00:55:45.045Z,1006.4
2023-03-17T00:56:47.214Z,1006.3
2023-03-17T00:57:50.662Z,1006.3
2023-03-17T00:58:53.658Z,1006.4
2023-03-17T00:59:56.175Z,1006.3
2023-03-17T01:00:59.621Z,1006.2
2023-03-17T01:02:03.363Z,1006.2
2023-03-17T01:03:06.898Z,1006.2
2023-03-17T01:04:10.538Z,1006.3
2023-03-17T01:05:13.687Z,1006.2
2023-03-17T01:06:17.236Z,1006.2
2023-03-17T01:07:20.669Z,1006.2
2023-03-17T01:08:23.848Z,1006.2
2023-03-17T01:09:28.110Z,1006.2
2023-03-17T01:10:32.517Z,1006.1
2023-03-17T01:11:35.029Z,1006.1
2023-03-17T01:12:37.973Z,1006.2
2023-03-17T01:13:40.901Z,1006.2
2023-03-17T01:14:43.641Z,1006.2
2023-03-17T01:15:46.464Z,1006.2
2023-03-17T01:16:50.134Z,1006.1
2023-03-17T01:17:52.569Z,1006.1
2023-03-17T01:18:55.659Z,1006.1
2023-03-17T01:19:58.077Z,1006.1
2023-03-17T01:21:01.459Z,1006
2023-03-17T01:22:03.910Z,1006
2023-03-17T01:23:06.906Z,1006
2023-03-17T01:24:09.766Z,1006
2023-03-17T01:25:13.975Z,1006
2023-03-17T01:26:17.383Z,1006
2023-03-17T01:27:20.213Z,1006
2023-03-17T01:28:23.346Z,1006
2023-03-17T01:29:26.819Z,1006
2023-03-17T01:30:30.544Z,1006
2023-03-17T01:31:35.853Z,1006
2023-03-17T01:32:39.709Z,1006
2023-03-17T01:33:42.651Z,1006.1
2023-03-17T01:34:45.361Z,1006
2023-03-17T01:35:48.606Z,1006
2023-03-17T01:36:51.862Z,1006
2023-03-17T01:37:54.858Z,1005.9
2023-03-17T01:38:58.285Z,1005.9
2023-03-17T01:40:01.412Z,1005.9
2023-03-17T01:41:05.671Z,1005.9
2023-03-17T01:42:09.160Z,1005.9
2023-03-17T01:43:11.885Z,1005.8
2023-03-17T01:44:15.270Z,1005.8
2023-03-17T01:45:18.053Z,1005.8
2023-03-17T01:46:20.210Z,1005.8
2023-03-17T01:47:23.834Z,1005.8
2023-03-17T01:48:26.693Z,1005.8
2023-03-17T01:49:29.886Z,1005.8
2023-03-17T01:50:32.652Z,1005.8
2023-03-17T01:51:35.424Z,1005.8
2023-03-17T01:52:37.997Z,1005.8
2023-03-17T01:53:40.732Z,1005.9
2023-03-17T01:54:43.628Z,1005.8
2023-03-17T01:55:46.456Z,1005.8
2023-03-17T01:56:50.571Z,1005.7
2023-03-17T01:57:53.461Z,1005.8
2023-03-17T01:58:56.739Z,1005.8
2023-03-17T01:59:59.743Z,1005.7
2023-03-17T02:01:02.104Z,1005.7
2023-03-17T02:02:05.647Z,1005.8
2023-03-17T02:03:08.106Z,1005.7
2023-03-17T02:04:11.045Z,1005.8
2023-03-17T02:05:14.183Z,1005.7
2023-03-17T02:06:16.933Z,1005.7
2023-03-17T02:07:20.280Z,1005.7
2023-03-17T02:08:23.351Z,1005.7
2023-03-17T02:09:26.807Z,1005.6
2023-03-17T02:10:31.054Z,1005.7
2023-03-17T02:11:35.909Z,1005.7
2023-03-17T02:12:39.737Z,1005.7
2023-03-17T02:13:43.443Z,1005.7
2023-03-17T02:14:46.541Z,1005.6
2023-03-17T02:15:49.257Z,1005.6
2023-03-17T02:16:51.817Z,1005.6
2023-03-17T02:17:55.599Z,1005.5
2023-03-17T02:18:59.052Z,1005.5
2023-03-17T02:20:01.480Z,1005.6
2023-03-17T02:21:03.920Z,1005.6
2023-03-17T02:22:07.388Z,1005.6
2023-03-17T02:23:10.474Z,1005.6
2023-03-17T02:24:13.036Z,1005.7
2023-03-17T02:25:16.398Z,1005.7
2023-03-17T02:26:18.898Z,1005.7
2023-03-17T02:27:22.400Z,1005.7
2023-03-17T02:28:26.607Z,1005.7
2023-03-17T02:29:29.833Z,1005.7
2023-03-17T02:30:32.982Z,1005.7
2023-03-17T02:31:36.878Z,1005.7
2023-03-17T02:32:39.831Z,1005.6
2023-03-17T02:33:43.347Z,1005.6
2023-03-17T02:34:46.124Z,1005.6
2023-03-17T02:35:49.340Z,1005.6
2023-03-17T02:36:52.106Z,1005.6
2023-03-17T02:37:55.033Z,1005.5
2023-03-17T02:38:57.857Z,1005.6
2023-03-17T02:40:00.339Z,1005.5
2023-03-17T02:41:03.547Z,1005.5
2023-03-17T02:42:06.737Z,1005.5
2023-03-17T02:43:09.488Z,1005.5
2023-03-17T02:44:13.357Z,1005.5
2023-03-17T02:45:16.864Z,1005.5
2023-03-17T02:46:20.347Z,1005.5
2023-03-17T02:47:23.976Z,1005.6
2023-03-17T02:48:27.695Z,1005.5
2023-03-17T02:49:30.517Z,1005.6
2023-03-17T02:50:33.618Z,1005.6
2023-03-17T02:51:36.390Z,1005.5
2023-03-17T02:52:39.124Z,1005.5
2023-03-17T02:53:42.916Z,1005.5
2023-03-17T02:54:45.674Z,1005.5
2023-03-17T02:55:48.805Z,1005.5
2023-03-17T02:56:51.938Z,1005.6
2023-03-17T02:57:54.982Z,1005.5
2023-03-17T02:58:58.358Z,1005.6
2023-03-17T03:00:02.489Z,1005.5
2023-03-17T03:01:05.738Z,1005.6
2023-03-17T03:02:07.956Z,1005.6
2023-03-17T03:03:10.943Z,1005.6
2023-03-17T03:04:14.304Z,1005.6
2023-03-17T03:05:17.668Z,1005.6
2023-03-17T03:06:20.431Z,1005.6
2023-03-17T03:07:23.247Z,1005.5
2023-03-17T03:08:25.681Z,1005.5
2023-03-17T03:09:28.851Z,1005.6
2023-03-17T03:10:32.669Z,1005.5
2023-03-17T03:11:35.520Z,1005.6
2023-03-17T03:12:38.827Z,1005.4
2023-03-17T03:13:41.966Z,1005.5
2023-03-17T03:14:45.787Z,1005.4
2023-03-17T03:15:49.710Z,1005.4
2023-03-17T03:16:53.293Z,1005.4
2023-03-17T03:17:56.505Z,1005.4
2023-03-17T03:18:59.282Z,1005.3
2023-03-17T03:20:02.005Z,1005.4
2023-03-17T03:21:05.473Z,1005.3
2023-03-17T03:22:07.912Z,1005.3
2023-03-17T03:23:10.712Z,1005.3
2023-03-17T03:24:14.003Z,1005.4
2023-03-17T03:25:17.169Z,1005.4
2023-03-17T03:26:20.339Z,1005.5
2023-03-17T03:27:23.999Z,1005.6
2023-03-17T03:28:27.663Z,1005.5
2023-03-17T03:29:29.950Z,1005.4
2023-03-17T03:30:33.288Z,1005.3
2023-03-17T03:31:37.444Z,1005.3
2023-03-17T03:32:41.194Z,1005.3
2023-03-17T03:33:43.784Z,1005.2
2023-03-17T03:34:46.315Z,1005.2
2023-03-17T03:35:49.533Z,1005.2
2023-03-17T03:36:52.695Z,1005.2
2023-03-17T03:37:55.551Z,1005.3
2023-03-17T03:38:58.375Z,1005.3
2023-03-17T03:40:02.100Z,1005.3
2023-03-17T03:41:05.257Z,1005.3
2023-03-17T03:42:08.411Z,1005.3
2023-03-17T03:43:24.112Z,1005.2
2023-03-17T03:44:27.582Z,1005
2023-03-17T03:45:30.575Z,1005
2023-03-17T03:46:34.220Z,1005
2023-03-17T03:47:38.820Z,1005.1
2023-03-17T03:48:41.728Z,1005.2
2023-03-17T03:49:44.880Z,1005.2
2023-03-17T03:50:48.113Z,1005.2
2023-03-17T03:51:51.870Z,1005.2
2023-03-17T03:52:55.325Z,1005.3
2023-03-17T03:53:58.260Z,1005.2
2023-03-17T03:55:01.355Z,1005.3
2023-03-17T03:56:04.906Z,1005.3
2023-03-17T03:57:08.103Z,1005.2
2023-03-17T03:58:11.173Z,1005.2
2023-03-17T03:59:14.271Z,1005.3
2023-03-17T04:00:17.353Z,1005.4
2023-03-17T04:01:19.804Z,1005.3
2023-03-17T04:02:22.766Z,1005.2
2023-03-17T04:03:27.132Z,1005.2
2023-03-17T04:04:30.739Z,1005.3
2023-03-17T04:05:34.001Z,1005.2
2023-03-17T04:06:37.084Z,1005.3
2023-03-17T04:07:39.971Z,1005.2
2023-03-17T04:08:43.676Z,1005.3
2023-03-17T04:09:46.781Z,1005.3
2023-03-17T04:10:49.925Z,1005.2
2023-03-17T04:11:52.370Z,1005.2
2023-03-17T04:12:55.730Z,1005.1
2023-03-17T04:13:58.741Z,1005.1
2023-03-17T04:15:02.220Z,1005.1
2023-03-17T04:16:04.719Z,1005.1
2023-03-17T04:17:08.711Z,1005.1
2023-03-17T04:18:11.542Z,1005.1
2023-03-17T04:19:15.796Z,1005.2
2023-03-17T04:20:19.121Z,1005.2
2023-03-17T04:21:22.489Z,1005.1
2023-03-17T04:22:25.765Z,1005.2
2023-03-17T04:23:29.445Z,1005.1
2023-03-17T04:24:32.521Z,1005.3
2023-03-17T04:25:35.006Z,1005.3
2023-03-17T04:26:37.709Z,1005.3
2023-03-17T04:27:40.831Z,1005.3
2023-03-17T04:28:44.475Z,1005.3
2023-03-17T04:29:47.779Z,1005.3
2023-03-17T04:30:50.926Z,1005.3
2023-03-17T04:31:53.971Z,1005.3
2023-03-17T04:32:57.675Z,1005.3
2023-03-17T04:34:01.102Z,1005.3
2023-03-17T04:35:04.975Z,1005.3
2023-03-17T04:36:07.919Z,1005.3
2023-03-17T04:37:10.903Z,1005.3
2023-03-17T04:38:13.654Z,1005.2
2023-03-17T04:39:16.718Z,1005.2
2023-03-17T04:40:19.552Z,1005.3
2023-03-17T04:41:22.719Z,1005.2
2023-03-17T04:42:25.794Z,1005.3
2023-03-17T04:43:28.613Z,1005.3
2023-03-17T04:44:32.343Z,1005.3
2023-03-17T04:45:35.132Z,1005.3
2023-03-17T04:46:39.032Z,1005.3
2023-03-17T04:47:42.108Z,1005.4
2023-03-17T04:48:45.501Z,1005.3
2023-03-17T04:49:48.610Z,1005.3
2023-03-17T04:50:52.791Z,1005.3
2023-03-17T04:51:56.519Z,1005.3
2023-03-17T04:52:59.741Z,1005.3
2023-03-17T04:54:03.027Z,1005.2
2023-03-17T04:55:06.066Z,1005.2
2023-03-17T04:56:09.607Z,1005.1
2023-03-17T04:57:12.331Z,1005.2
2023-03-17T04:58:31.288Z,1005.1
2023-03-17T04:59:34.354Z,1005.2
2023-03-17T05:00:37.064Z,1005.1
2023-03-17T05:01:40.367Z,1005
2023-03-17T05:02:43.891Z,1005
2023-03-17T05:03:47.041Z,1004.9
2023-03-17T05:04:50.042Z,1005
2023-03-17T05:05:52.620Z,1005
2023-03-17T05:06:56.794Z,1005.1
2023-03-17T05:07:59.870Z,1005
2023-03-17T05:09:03.482Z,1005
2023-03-17T05:10:06.463Z,1004.9
2023-03-17T05:11:10.195Z,1004.9
2023-03-17T05:12:12.740Z,1004.8
2023-03-17T05:13:16.546Z,1004.8
2023-03-17T05:14:20.209Z,1004.7
2023-03-17T05:15:24.020Z,1004.7
2023-03-17T05:16:26.523Z,1004.7
2023-03-17T05:17:30.146Z,1004.6
2023-03-17T05:18:33.501Z,1004.6
2023-03-17T05:19:36.910Z,1004.5
2023-03-17T05:20:39.977Z,1004.5
2023-03-17T05:21:42.768Z,1004.5
2023-03-17T05:22:46.971Z,1004.4
2023-03-17T05:23:50.383Z,1004.4
2023-03-17T05:24:56.778Z,1004.3
2023-03-17T05:25:59.988Z,1004.3
2023-03-17T05:27:03.091Z,1004.3
2023-03-17T05:28:05.899Z,1004.3
2023-03-17T05:29:08.436Z,1004.3
2023-03-17T05:30:11.680Z,1004.3
2023-03-17T05:31:15.773Z,1004.3
2023-03-17T05:32:18.791Z,1004.2
2023-03-17T05:33:21.745Z,1004.3
2023-03-17T05:34:25.236Z,1004.3
2023-03-17T05:35:28.033Z,1004.3
2023-03-17T05:36:31.173Z,1004.4
2023-03-17T05:37:34.370Z,1004.4
2023-03-17T05:38:38.200Z,1004.4
2023-03-17T05:39:41.645Z,1004.4
2023-03-17T05:40:44.794Z,1004.4
2023-03-17T05:41:48.439Z,1004.7
2023-03-17T05:42:51.431Z,1004.4
2023-03-17T05:43:54.818Z,1004.5
2023-03-17T05:44:58.104Z,1004.5
2023-03-17T05:46:01.428Z,1004.5
2023-03-17T05:47:04.677Z,1004.5
2023-03-17T05:48:08.419Z,1004.5
2023-03-17T05:49:11.792Z,1004.5
2023-03-17T05:50:15.171Z,1004.5
2023-03-17T05:51:18.350Z,1004.5
2023-03-17T05:52:21.165Z,1004.6
2023-03-17T05:53:24.175Z,1004.5
2023-03-17T05:54:28.286Z,1004.6
2023-03-17T05:55:31.522Z,1004.7
2023-03-17T05:56:34.854Z,1004.6
2023-03-17T05:57:38.317Z,1004.7
2023-03-17T05:58:41.314Z,1004.7
2023-03-17T05:59:44.116Z,1004.6
2023-03-17T06:00:46.822Z,1004.6
2023-03-17T06:01:49.380Z,1004.6
2023-03-17T06:02:51.975Z,1004.6
2023-03-17T06:03:55.492Z,1004.6
2023-03-17T06:04:59.064Z,1004.6
2023-03-17T06:06:02.234Z,1004.5
2023-03-17T06:07:05.906Z,1004.6
2023-03-17T06:08:09.382Z,1004.6
2023-03-17T06:09:12.206Z,1004.5
2023-03-17T06:10:16.096Z,1004.5
2023-03-17T06:11:18.571Z,1004.4
2023-03-17T06:12:21.731Z,1004.5
2023-03-17T06:13:24.645Z,1004.4
2023-03-17T06:14:27.837Z,1004.4
2023-03-17T06:15:30.786Z,1004.4
2023-03-17T06:16:36.434Z,1004.3
2023-03-17T06:17:39.863Z,1004.3
2023-03-17T06:18:42.380Z,1004.4
2023-03-17T06:19:46.781Z,1004.3
2023-03-17T06:20:51.873Z,1004.3
2023-03-17T06:21:54.333Z,1004.3
2023-03-17T06:23:06.110Z,1004.3
2023-03-17T06:24:09.540Z,1004.3
2023-03-17T06:25:12.574Z,1004.3
2023-03-17T06:26:16.729Z,1004.3
2023-03-17T06:27:20.103Z,1004.3
2023-03-17T06:28:22.550Z,1004.2
2023-03-17T06:29:25.296Z,1004.3
2023-03-17T06:30:29.428Z,1004.3
2023-03-17T06:31:32.946Z,1004.3
2023-03-17T06:32:36.343Z,1004.3
2023-03-17T06:33:39.684Z,1004.3
2023-03-17T06:34:42.789Z,1004.3
2023-03-17T06:35:46.730Z,1004.3
2023-03-17T06:36:50.798Z,1004.2
2023-03-17T06:37:54.521Z,1004.2
2023-03-17T06:38:57.956Z,1004.2
2023-03-17T06:40:00.693Z,1004.3
2023-03-17T06:41:03.748Z,1004.2
2023-03-17T06:42:07.654Z,1004.3
2023-03-17T06:43:11.059Z,1004.2
2023-03-17T06:44:13.793Z,1004.2
2023-03-17T06:45:17.009Z,1004.2
2023-03-17T06:46:20.166Z,1004.2
2023-03-17T06:47:26.343Z,1004.1
2023-03-17T06:48:29.397Z,1004.2
2023-03-17T06:49:33.209Z,1004.2
2023-03-17T06:50:37.252Z,1004.2
2023-03-17T06:51:40.610Z,1004.2
2023-03-17T06:52:46.678Z,1004.2
2023-03-17T06:53:50.182Z,1004.2
2023-03-17T06:54:53.243Z,1004.2
2023-03-17T06:55:55.980Z,1004.2
2023-03-17T06:56:58.802Z,1004.2
2023-03-17T06:58:02.653Z,1004.2
2023-03-17T06:59:05.429Z,1004.2
2023-03-17T07:00:09.289Z,1004.2
2023-03-17T07:01:12.374Z,1004.1
2023-03-17T07:02:15.358Z,1004.2
2023-03-17T07:03:18.369Z,1004.1
2023-03-17T07:04:22.082Z,1004.2
2023-03-17T07:05:25.346Z,1004.2
2023-03-17T07:06:29.060Z,1004.2
2023-03-17T07:07:32.422Z,1004.2
2023-03-17T07:08:35.421Z,1004.2
2023-03-17T07:09:37.931Z,1004.2
2023-03-17T07:10:41.112Z,1004.2
2023-03-17T07:11:44.827Z,1004.1
2023-03-17T07:12:47.797Z,1004.1
2023-03-17T07:13:51.981Z,1004.1
2023-03-17T07:14:55.405Z,1004.1
2023-03-17T07:16:01.037Z,1004.1
2023-03-17T07:17:04.423Z,1004.1
2023-03-17T07:18:07.703Z,1004.1
2023-03-17T07:19:10.425Z,1004
2023-03-17T07:20:13.528Z,1004
2023-03-17T07:21:16.285Z,1004.1
2023-03-17T07:22:19.017Z,1004.1
2023-03-17T07:23:22.119Z,1004.1
2023-03-17T07:24:25.329Z,1004
2023-03-17T07:25:28.388Z,1004.2
2023-03-17T07:26:33.828Z,1004.2
2023-03-17T07:27:37.649Z,1004.2
2023-03-17T07:28:41.048Z,1004.2
2023-03-17T07:29:45.253Z,1004.2
2023-03-17T07:30:48.380Z,1004.3
2023-03-17T07:31:51.647Z,1004.2
2023-03-17T07:32:54.808Z,1004.3
2023-03-17T07:33:58.816Z,1004.2
2023-03-17T07:35:02.364Z,1004.3
2023-03-17T07:36:05.996Z,1004.4
2023-03-17T07:37:09.945Z,1004.3
2023-03-17T07:38:13.440Z,1004.3
2023-03-17T07:39:16.498Z,1004.4
2023-03-17T07:40:19.626Z,1004.4
2023-03-17T07:41:22.576Z,1004.3
2023-03-17T07:42:25.754Z,1004.4
2023-03-17T07:43:29.149Z,1004.3
2023-03-17T07:44:32.280Z,1004.2
2023-03-17T07:45:36.562Z,1004.3
2023-03-17T07:46:40.115Z,1004.3
2023-03-17T07:47:43.512Z,1004.2
2023-03-17T07:48:47.306Z,1004.3
2023-03-17T07:49:50.343Z,1004.2
2023-03-17T07:50:53.569Z,1004.2
2023-03-17T07:51:57.252Z,1004.2
2023-03-17T07:53:00.705Z,1004.1
2023-03-17T07:54:04.676Z,1004.1
2023-03-17T07:55:07.578Z,1004.2
2023-03-17T07:56:11.650Z,1004.1
2023-03-17T07:57:14.482Z,1004.1
2023-03-17T07:58:18.486Z,1004.1
2023-03-17T07:59:21.330Z,1004.2
2023-03-17T08:00:24.689Z,1004.2
2023-03-17T08:01:28.616Z,1004.1
2023-03-17T08:02:32.108Z,1004.2
2023-03-17T08:03:35.597Z,1004.2
2023-03-17T08:04:43.584Z,1004.3
2023-03-17T08:05:46.988Z,1004.2
2023-03-17T08:06:50.138Z,1004.2
2023-03-17T08:07:53.583Z,1004.1
2023-03-17T08:08:57.028Z,1004.1
2023-03-17T08:09:59.955Z,1004.1
2023-03-17T08:11:03.216Z,1004.1
2023-03-17T08:12:06.826Z,1004.1
2023-03-17T08:13:10.094Z,1004.1
2023-03-17T08:14:13.248Z,1004.1
2023-03-17T08:15:16.687Z,1004.1
2023-03-17T08:16:19.542Z,1004
2023-03-17T08:17:24.035Z,1004.1
2023-03-17T08:18:27.883Z,1004
2023-03-17T08:19:31.747Z,1004
2023-03-17T08:20:36.039Z,1004
2023-03-17T08:21:39.460Z,1004
2023-03-17T08:22:42.952Z,1004
2023-03-17T08:23:46.451Z,1004.1
2023-03-17T08:24:49.873Z,1004.1
2023-03-17T08:25:53.120Z,1004.1
2023-03-17T08:26:59.782Z,1004.1
2023-03-17T08:28:03.941Z,1003.9
2023-03-17T08:29:06.910Z,1004
2023-03-17T08:30:10.044Z,1004.1
2023-03-17T08:31:14.100Z,1004
2023-03-17T08:32:17.808Z,1004.1
2023-03-17T08:33:22.171Z,1004
2023-03-17T08:34:26.208Z,1004.1
2023-03-17T08:35:30.392Z,1004.1
2023-03-17T08:36:35.830Z,1004.1
2023-03-17T08:37:38.707Z,1004
2023-03-17T08:38:42.095Z,1004
2023-03-17T08:39:45.186Z,1004
2023-03-17T08:40:48.636Z,1004
2023-03-17T08:41:51.439Z,1003.9
2023-03-17T08:42:55.443Z,1003.8
2023-03-17T08:43:58.606Z,1003.9
2023-03-17T08:45:02.092Z,1003.9
2023-03-17T08:46:05.760Z,1003.9
2023-03-17T08:47:10.331Z,1003.8
2023-03-17T08:48:13.253Z,1003.9
2023-03-17T08:49:17.491Z,1003.8
2023-03-17T08:50:20.928Z,1003.8
2023-03-17T08:51:24.926Z,1003.9
2023-03-17T08:52:27.795Z,1003.8
2023-03-17T08:53:31.176Z,1003.8
2023-03-17T08:54:34.659Z,1003.8
2023-03-17T08:55:37.745Z,1003.8
2023-03-17T08:56:41.109Z,1003.7
2023-03-17T08:57:44.385Z,1003.8
2023-03-17T08:58:47.529Z,1003.8
2023-03-17T08:59:50.688Z,1003.8
2023-03-17T09:00:53.859Z,1003.7
2023-03-17T09:01:57.503Z,1003.8
2023-03-17T09:03:00.798Z,1003.7
2023-03-17T09:04:03.782Z,1003.7
2023-03-17T09:05:07.988Z,1003.7
2023-03-17T09:06:10.849Z,1003.7
2023-03-17T09:07:14.245Z,1003.7
2023-03-17T09:08:17.731Z,1003.7
2023-03-17T09:09:21.836Z,1003.7
2023-03-17T09:10:25.724Z,1003.6
2023-03-17T09:11:28.844Z,1003.7
2023-03-17T09:12:34.418Z,1003.6
2023-03-17T09:13:37.843Z,1003.6
2023-03-17T09:14:45.901Z,1003.6
2023-03-17T09:15:52.726Z,1003.7
2023-03-17T09:16:56.624Z,1003.7
2023-03-17T09:17:59.722Z,1003.6
2023-03-17T09:19:03.163Z,1003.6
2023-03-17T09:20:06.613Z,1003.6
2023-03-17T09:21:10.760Z,1003.5
2023-03-17T09:22:14.237Z,1003.5
2023-03-17T09:23:17.239Z,1003.5
2023-03-17T09:24:20.917Z,1003.4
2023-03-17T09:25:24.013Z,1003.3
2023-03-17T09:26:27.400Z,1003.6
2023-03-17T09:27:31.145Z,1003.5
2023-03-17T09:28:34.275Z,1003.7
2023-03-17T09:29:37.264Z,1003.4
2023-03-17T09:30:40.896Z,1003.4
2023-03-17T09:31:44.947Z,1003.5
2023-03-17T09:32:48.159Z,1003.5
2023-03-17T09:33:52.216Z,1003.4
2023-03-17T09:34:55.985Z,1003.4
2023-03-17T09:35:59.423Z,1003.4
2023-03-17T09:37:03.733Z,1003.4
2023-03-17T09:38:07.564Z,1003.4
2023-03-17T09:39:10.671Z,1003.3
2023-03-17T09:40:13.759Z,1003.3
2023-03-17T09:41:16.876Z,1003.2
2023-03-17T09:42:19.946Z,1003.2
2023-03-17T09:43:23.125Z,1003.2
2023-03-17T09:44:25.950Z,1003.2
2023-03-17T09:45:29.302Z,1003.2
2023-03-17T09:46:32.689Z,1003.3
2023-03-17T09:47:36.668Z,1003.2
2023-03-17T09:48:40.047Z,1003.2
2023-03-17T09:49:43.042Z,1003.2
2023-03-17T09:50:46.377Z,1003.4
2023-03-17T09:51:49.684Z,1003.2
2023-03-17T09:52:53.594Z,1003.3
2023-03-17T09:53:57.261Z,1003.3
2023-03-17T09:55:00.358Z,1003.2
2023-03-17T09:56:04.071Z,1003.2
2023-03-17T09:57:06.674Z,1003.1
2023-03-17T09:58:10.298Z,1003.1
2023-03-17T09:59:13.397Z,1003.1
2023-03-17T10:00:16.486Z,1003.2
2023-03-17T10:01:19.896Z,1003.3
2023-03-17T10:02:23.111Z,1003.2
2023-03-17T10:03:26.593Z,1003.2
2023-03-17T10:04:30.168Z,1003.4
2023-03-17T10:05:34.148Z,1003.3
2023-03-17T10:06:38.995Z,1003.2
2023-03-17T10:07:43.131Z,1003.2
2023-03-17T10:08:47.453Z,1003.2
2023-03-17T10:09:50.851Z,1003.2
2023-03-17T10:10:53.564Z,1003.3
2023-03-17T10:11:56.406Z,1003.2
2023-03-17T10:12:59.812Z,1003.2
2023-03-17T10:14:03.208Z,1003.3
2023-03-17T10:15:06.372Z,1003.2
2023-03-17T10:16:09.558Z,1003.2
2023-03-17T10:17:13.001Z,1003.1
2023-03-17T10:18:15.948Z,1003.1
2023-03-17T10:19:18.974Z,1003.1
2023-03-17T10:20:23.001Z,1003
2023-03-17T10:21:26.178Z,1003.1
2023-03-17T10:22:29.861Z,1003.1
2023-03-17T10:25:35.827Z,1003.1
2023-03-17T10:26:39.500Z,1003.1
2023-03-17T10:27:43.238Z,1003
2023-03-17T10:28:46.391Z,1003.1
2023-03-17T10:29:49.748Z,1003.1
2023-03-17T10:30:52.854Z,1003
2023-03-17T10:31:59.058Z,1003
2023-03-17T10:33:03.388Z,1003
2023-03-17T10:34:06.962Z,1003.1
2023-03-17T10:35:10.107Z,1003
2023-03-17T10:36:13.278Z,1003
2023-03-17T10:37:17.412Z,1002.9
2023-03-17T10:38:19.725Z,1003
2023-03-17T10:39:23.746Z,1003
2023-03-17T10:40:26.931Z,1003
2023-03-17T10:41:31.477Z,1003.1
2023-03-17T10:42:34.926Z,1003
2023-03-17T10:43:38.066Z,1003
2023-03-17T10:44:41.527Z,1003
2023-03-17T10:45:45.814Z,1003
2023-03-17T10:46:50.148Z,1003
2023-03-17T10:47:54.178Z,1003
2023-03-17T10:48:57.873Z,1002.9
2023-03-17T10:50:01.348Z,1003
2023-03-17T10:51:04.841Z,1003
2023-03-17T10:52:08.469Z,1003
2023-03-17T10:53:11.459Z,1002.9
2023-03-17T10:54:14.239Z,1002.8
2023-03-17T10:55:17.239Z,1002.9
2023-03-17T10:56:20.631Z,1002.8
2023-03-17T10:57:24.822Z,1002.8
2023-03-17T10:58:28.642Z,1002.8
2023-03-17T10:59:32.095Z,1002.8
2023-03-17T11:00:36.200Z,1002.8
2023-03-17T11:01:39.982Z,1002.8
2023-03-17T11:02:43.160Z,1002.8
2023-03-17T11:03:46.890Z,1002.7
2023-03-17T11:04:50.402Z,1002.7
2023-03-17T11:05:53.201Z,1002.8
2023-03-17T11:06:56.842Z,1002.7
2023-03-17T11:08:00.588Z,1002.7
2023-03-17T11:09:03.588Z,1002.7
2023-03-17T11:10:06.935Z,1002.7
2023-03-17T11:11:09.721Z,1002.7
2023-03-17T11:12:12.808Z,1002.8
2023-03-17T11:13:17.154Z,1002.7
2023-03-17T11:14:20.490Z,1002.6
2023-03-17T11:15:23.896Z,1002.6
2023-03-17T11:16:27.369Z,1002.6
2023-03-17T11:17:31.242Z,1002.6
2023-03-17T11:18:34.959Z,1002.6
2023-03-17T11:19:38.319Z,1002.5
2023-03-17T11:20:41.065Z,1002.6
2023-03-17T11:21:44.872Z,1002.6
2023-03-17T11:22:47.337Z,1002.6
2023-03-17T11:23:51.056Z,1002.6
2023-03-17T11:24:54.468Z,1002.5
2023-03-17T11:25:57.914Z,1002.4
2023-03-17T11:27:01.034Z,1002.5
2023-03-17T11:28:04.846Z,1002.4
2023-03-17T11:29:08.773Z,1002.4
2023-03-17T11:30:14.775Z,1002.5
2023-03-17T11:31:18.379Z,1002.5
2023-03-17T11:32:22.088Z,1002.5
2023-03-17T11:33:24.521Z,1002.5
2023-03-17T11:34:27.590Z,1002.5
2023-03-17T11:35:31.094Z,1002.6
2023-03-17T11:36:34.262Z,1002.5
2023-03-17T11:37:37.645Z,1002.5
2023-03-17T11:38:40.799Z,1002.5
2023-03-17T11:39:43.649Z,1002.5
2023-03-17T11:40:46.972Z,1002.5
2023-03-17T11:41:50.138Z,1002.5
2023-03-17T11:42:55.354Z,1002.5
2023-03-17T11:44:00.107Z,1002.5
2023-03-17T11:45:04.352Z,1002.5
2023-03-17T11:46:07.884Z,1002.4
2023-03-17T11:47:11.957Z,1002.4
2023-03-17T11:48:14.775Z,1002.5
2023-03-17T11:49:18.132Z,1002.5
2023-03-17T11:50:21.847Z,1002.4
2023-03-17T11:51:24.710Z,1002.4
2023-03-17T11:52:28.417Z,1002.4
2023-03-17T11:53:31.975Z,1002.4
2023-03-17T11:54:34.760Z,1002.3
2023-03-17T11:55:38.172Z,1002.3
2023-03-17T11:56:41.268Z,1002.3
2023-03-17T11:57:44.777Z,1002.2
2023-03-17T11:58:48.146Z,1002.2
2023-03-17T11:59:50.934Z,1002.2
2023-03-17T12:00:54.900Z,1002.3
2023-03-17T12:01:58.657Z,1002.2
2023-03-17T12:03:02.567Z,1002.2
2023-03-17T12:04:06.399Z,1002.3
2023-03-17T12:05:10.377Z,1002.3
2023-03-17T12:06:13.438Z,1002.2
2023-03-17T12:07:16.032Z,1002.2
2023-03-17T12:08:19.137Z,1002.2
2023-03-17T12:09:23.155Z,1002.2
2023-03-17T12:10:26.034Z,1002.2
2023-03-17T12:11:29.483Z,1002.3
2023-03-17T12:12:32.876Z,1002.2
2023-03-17T12:13:36.514Z,1002.3
2023-03-17T12:14:40.196Z,1002.3
2023-03-17T12:15:43.777Z,1002.2
2023-03-17T12:16:47.915Z,1002.2
2023-03-17T12:17:50.676Z,1002.2
2023-03-17T12:18:53.955Z,1002.3
2023-03-17T12:19:57.669Z,1002.3
2023-03-17T12:21:01.089Z,1002.4
2023-03-17T12:22:03.768Z,1002.4
2023-03-17T12:23:07.091Z,1002.3
2023-03-17T12:24:11.110Z,1002.3
2023-03-17T12:25:15.126Z,1002.4
2023-03-17T12:26:18.612Z,1002.4
2023-03-17T12:27:22.296Z,1002.4
2023-03-17T12:28:25.661Z,1002.4
2023-03-17T12:29:29.474Z,1002.3
2023-03-17T12:30:33.458Z,1002.4
2023-03-17T12:31:37.260Z,1002.3
2023-03-17T12:32:41.593Z,1002.4
2023-03-17T12:33:45.658Z,1002.3
2023-03-17T12:34:48.901Z,1002.3
2023-03-17T12:35:51.798Z,1002.3
2023-03-17T12:36:55.157Z,1002.3
2023-03-17T12:37:58.867Z,1002.3
2023-03-17T12:39:01.995Z,1002.2
2023-03-17T12:40:05.471Z,1002.2
2023-03-17T12:41:08.980Z,1002.3
2023-03-17T12:42:11.696Z,1002.2
2023-03-17T12:43:14.773Z,1002.1
2023-03-17T12:44:17.803Z,1002.2
2023-03-17T12:45:21.239Z,1002.2
2023-03-17T12:46:24.195Z,1002.2
2023-03-17T12:47:28.314Z,1002.2
2023-03-17T12:48:32.469Z,1002.1
2023-03-17T12:49:35.884Z,1002.1
2023-03-17T12:50:39.280Z,1002.1
2023-03-17T12:51:43.024Z,1002.1
2023-03-17T12:52:46.404Z,1002.1
2023-03-17T12:53:50.149Z,1002.1
2023-03-17T12:54:53.574Z,1002.1
2023-03-17T12:55:56.860Z,1002.2
2023-03-17T12:57:00.951Z,1002.2
2023-03-17T12:58:04.364Z,1002.2
2023-03-17T12:59:07.492Z,1002.1
2023-03-17T13:00:10.028Z,1002.2
2023-03-17T13:01:13.131Z,1002.1
2023-03-17T13:02:16.697Z,1002.2
2023-03-17T13:03:20.637Z,1002.2
2023-03-17T13:04:27.538Z,1002.1
2023-03-17T13:05:31.560Z,1002.1
2023-03-17T13:06:36.344Z,1002
2023-03-17T13:07:39.212Z,1002
2023-03-17T13:08:42.933Z,1002
2023-03-17T13:09:45.599Z,1002
2023-03-17T13:10:48.894Z,1002
2023-03-17T13:11:52.302Z,1002
2023-03-17T13:12:55.020Z,1002.1
2023-03-17T13:13:58.125Z,1002
2023-03-17T13:15:01.320Z,1002
2023-03-17T13:16:05.174Z,1002
2023-03-17T13:17:08.813Z,1002
2023-03-17T13:18:12.184Z,1002